sensor_id;sensor_type;location;lat;lon;timestamp;P1;durP1;ratioP1;P2;durP2;ratioP2
26690;SDS011;14307;51.718;8.938;2022-09-30T00:01:41;40.53;;;29.20;;
26690;SDS011;14307;51.718;8.938;2022-09-30T00:04:12;40.55;;;29.50;;
26690;SDS011;14307;51.718;8.938;2022-09-30T00:06:41;40.33;;;28.70;;
26690;SDS011;14307;51.718;8.938;2022-09-30T00:09:08;32.80;;;26.90;;
26690;SDS011;14307;51.718;8.938;2022-09-30T00:11:36;37.10;;;28.48;;
26690;SDS011;14307;51.718;8.938;2022-09-30T00:14:04;40.08;;;29.65;;
26690;SDS011;14307;51.718;8.938;2022-09-30T00:16:34;38.90;;;28.02;;
26690;SDS011;14307;51.718;8.938;2022-09-30T00:19:02;40.70;;;30.10;;
26690;SDS011;14307;51.718;8.938;2022-09-30T00:21:30;43.90;;;30.90;;
26690;SDS011;14307;51.718;8.938;2022-09-30T00:23:59;40.55;;;29.60;;
26690;SDS011;14307;51.718;8.938;2022-09-30T00:26:26;43.30;;;29.98;;
26690;SDS011;14307;51.718;8.938;2022-09-30T00:28:57;41.22;;;29.75;;
26690;SDS011;14307;51.718;8.938;2022-09-30T00:31:26;40.05;;;29.25;;
26690;SDS011;14307;51.718;8.938;2022-09-30T00:33:55;44.00;;;30.50;;
26690;SDS011;14307;51.718;8.938;2022-09-30T00:36:38;39.60;;;28.75;;
26690;SDS011;14307;51.718;8.938;2022-09-30T00:39:20;42.72;;;29.55;;
26690;SDS011;14307;51.718;8.938;2022-09-30T00:41:50;37.10;;;28.77;;
26690;SDS011;14307;51.718;8.938;2022-09-30T00:52:43;37.92;;;28.30;;
26690;SDS011;14307;51.718;8.938;2022-09-30T00:58:27;37.95;;;29.13;;
26690;SDS011;14307;51.718;8.938;2022-09-30T01:00:55;38.20;;;27.67;;
26690;SDS011;14307;51.718;8.938;2022-09-30T01:03:25;35.85;;;28.33;;
26690;SDS011;14307;51.718;8.938;2022-09-30T01:05:54;42.17;;;30.58;;
26690;SDS011;14307;51.718;8.938;2022-09-30T01:08:21;41.88;;;29.42;;
26690;SDS011;14307;51.718;8.938;2022-09-30T01:10:49;42.75;;;31.17;;
26690;SDS011;14307;51.718;8.938;2022-09-30T01:13:15;47.55;;;30.30;;
26690;SDS011;14307;51.718;8.938;2022-09-30T01:16:48;41.90;;;29.20;;
26690;SDS011;14307;51.718;8.938;2022-09-30T01:27:42;50.00;;;30.92;;
26690;SDS011;14307;51.718;8.938;2022-09-30T01:33:38;38.85;;;27.48;;
26690;SDS011;14307;51.718;8.938;2022-09-30T01:36:19;40.63;;;29.48;;
26690;SDS011;14307;51.718;8.938;2022-09-30T01:39:56;40.50;;;29.38;;
26690;SDS011;14307;51.718;8.938;2022-09-30T01:44:45;37.67;;;27.15;;
26690;SDS011;14307;51.718;8.938;2022-09-30T01:49:53;42.42;;;29.50;;
26690;SDS011;14307;51.718;8.938;2022-09-30T01:52:36;40.25;;;28.27;;
26690;SDS011;14307;51.718;8.938;2022-09-30T01:55:13;46.80;;;30.38;;
26690;SDS011;14307;51.718;8.938;2022-09-30T01:57:55;45.75;;;29.27;;
26690;SDS011;14307;51.718;8.938;2022-09-30T02:00:47;44.15;;;28.38;;
26690;SDS011;14307;51.718;8.938;2022-09-30T02:03:19;45.35;;;29.33;;
26690;SDS011;14307;51.718;8.938;2022-09-30T02:05:59;48.85;;;29.00;;
26690;SDS011;14307;51.718;8.938;2022-09-30T02:08:48;39.75;;;28.70;;
26690;SDS011;14307;51.718;8.938;2022-09-30T02:11:21;43.25;;;28.25;;
26690;SDS011;14307;51.718;8.938;2022-09-30T02:14:01;40.10;;;26.88;;
26690;SDS011;14307;51.718;8.938;2022-09-30T02:16:33;42.38;;;28.25;;
26690;SDS011;14307;51.718;8.938;2022-09-30T02:19:25;36.50;;;27.30;;
26690;SDS011;14307;51.718;8.938;2022-09-30T02:25:14;39.13;;;28.33;;
26690;SDS011;14307;51.718;8.938;2022-09-30T02:27:47;37.78;;;27.23;;
26690;SDS011;14307;51.718;8.938;2022-09-30T02:30:20;42.63;;;28.48;;
26690;SDS011;14307;51.718;8.938;2022-09-30T02:32:51;48.25;;;31.17;;
26690;SDS011;14307;51.718;8.938;2022-09-30T02:35:35;48.97;;;31.58;;
26690;SDS011;14307;51.718;8.938;2022-09-30T02:38:24;44.05;;;31.38;;
26690;SDS011;14307;51.718;8.938;2022-09-30T02:40:55;52.65;;;31.80;;
26690;SDS011;14307;51.718;8.938;2022-09-30T02:43:29;41.30;;;30.77;;
26690;SDS011;14307;51.718;8.938;2022-09-30T02:54:34;46.80;;;31.83;;
26690;SDS011;14307;51.718;8.938;2022-09-30T02:57:14;53.13;;;33.67;;
26690;SDS011;14307;51.718;8.938;2022-09-30T02:59:47;51.03;;;33.38;;
26690;SDS011;14307;51.718;8.938;2022-09-30T03:02:18;51.17;;;32.28;;
26690;SDS011;14307;51.718;8.938;2022-09-30T03:04:46;48.58;;;34.03;;
26690;SDS011;14307;51.718;8.938;2022-09-30T03:07:15;53.92;;;33.28;;
26690;SDS011;14307;51.718;8.938;2022-09-30T03:09:42;56.83;;;34.25;;
26690;SDS011;14307;51.718;8.938;2022-09-30T03:12:10;53.60;;;33.38;;
26690;SDS011;14307;51.718;8.938;2022-09-30T03:15:00;49.40;;;32.38;;
26690;SDS011;14307;51.718;8.938;2022-09-30T03:26:28;48.38;;;32.75;;
26690;SDS011;14307;51.718;8.938;2022-09-30T03:29:15;51.13;;;32.92;;
26690;SDS011;14307;51.718;8.938;2022-09-30T03:34:27;46.50;;;32.67;;
26690;SDS011;14307;51.718;8.938;2022-09-30T03:37:07;53.83;;;33.35;;
26690;SDS011;14307;51.718;8.938;2022-09-30T03:39:56;55.08;;;33.67;;
26690;SDS011;14307;51.718;8.938;2022-09-30T03:42:28;53.72;;;33.03;;
26690;SDS011;14307;51.718;8.938;2022-09-30T03:45:10;49.33;;;32.80;;
26690;SDS011;14307;51.718;8.938;2022-09-30T03:47:48;53.15;;;33.80;;
26690;SDS011;14307;51.718;8.938;2022-09-30T03:50:19;56.15;;;35.20;;
26690;SDS011;14307;51.718;8.938;2022-09-30T03:52:48;53.17;;;34.63;;
26690;SDS011;14307;51.718;8.938;2022-09-30T03:55:15;59.80;;;36.70;;
26690;SDS011;14307;51.718;8.938;2022-09-30T03:57:44;62.65;;;35.72;;
26690;SDS011;14307;51.718;8.938;2022-09-30T04:00:11;63.10;;;38.47;;
26690;SDS011;14307;51.718;8.938;2022-09-30T04:02:39;69.18;;;39.53;;
26690;SDS011;14307;51.718;8.938;2022-09-30T04:05:06;70.97;;;38.33;;
26690;SDS011;14307;51.718;8.938;2022-09-30T04:07:33;64.63;;;38.95;;
26690;SDS011;14307;51.718;8.938;2022-09-30T04:10:00;63.60;;;39.15;;
26690;SDS011;14307;51.718;8.938;2022-09-30T04:12:27;69.50;;;40.47;;
26690;SDS011;14307;51.718;8.938;2022-09-30T04:14:54;69.25;;;40.38;;
26690;SDS011;14307;51.718;8.938;2022-09-30T04:17:20;69.20;;;39.35;;
26690;SDS011;14307;51.718;8.938;2022-09-30T04:19:48;69.50;;;39.25;;
26690;SDS011;14307;51.718;8.938;2022-09-30T04:22:15;67.88;;;42.67;;
26690;SDS011;14307;51.718;8.938;2022-09-30T04:24:42;80.28;;;43.60;;
26690;SDS011;14307;51.718;8.938;2022-09-30T04:27:09;75.85;;;40.00;;
26690;SDS011;14307;51.718;8.938;2022-09-30T04:29:35;72.85;;;41.45;;
26690;SDS011;14307;51.718;8.938;2022-09-30T04:32:02;67.75;;;40.90;;
26690;SDS011;14307;51.718;8.938;2022-09-30T04:34:29;70.72;;;39.65;;
26690;SDS011;14307;51.718;8.938;2022-09-30T04:36:56;89.88;;;42.83;;
26690;SDS011;14307;51.718;8.938;2022-09-30T04:39:22;78.50;;;41.80;;
26690;SDS011;14307;51.718;8.938;2022-09-30T04:41:49;84.53;;;41.42;;
26690;SDS011;14307;51.718;8.938;2022-09-30T04:44:19;73.13;;;38.58;;
26690;SDS011;14307;51.718;8.938;2022-09-30T04:46:46;72.20;;;39.58;;
26690;SDS011;14307;51.718;8.938;2022-09-30T04:49:13;61.90;;;37.08;;
26690;SDS011;14307;51.718;8.938;2022-09-30T04:51:40;68.85;;;37.50;;
26690;SDS011;14307;51.718;8.938;2022-09-30T04:54:11;69.60;;;40.28;;
26690;SDS011;14307;51.718;8.938;2022-09-30T04:56:38;76.68;;;41.05;;
26690;SDS011;14307;51.718;8.938;2022-09-30T04:59:05;82.38;;;42.33;;
26690;SDS011;14307;51.718;8.938;2022-09-30T05:01:32;75.80;;;42.13;;
26690;SDS011;14307;51.718;8.938;2022-09-30T05:03:59;80.85;;;40.72;;
26690;SDS011;14307;51.718;8.938;2022-09-30T05:06:26;82.30;;;42.15;;
26690;SDS011;14307;51.718;8.938;2022-09-30T05:08:52;80.75;;;41.80;;
26690;SDS011;14307;51.718;8.938;2022-09-30T05:11:20;70.78;;;38.08;;
26690;SDS011;14307;51.718;8.938;2022-09-30T05:13:47;90.22;;;43.05;;
26690;SDS011;14307;51.718;8.938;2022-09-30T05:16:16;96.50;;;45.45;;
26690;SDS011;14307;51.718;8.938;2022-09-30T05:18:43;82.63;;;43.72;;
26690;SDS011;14307;51.718;8.938;2022-09-30T05:21:12;92.90;;;44.95;;
26690;SDS011;14307;51.718;8.938;2022-09-30T05:23:40;88.72;;;43.63;;
26690;SDS011;14307;51.718;8.938;2022-09-30T05:26:07;97.43;;;45.95;;
26690;SDS011;14307;51.718;8.938;2022-09-30T05:28:38;74.97;;;40.28;;
26690;SDS011;14307;51.718;8.938;2022-09-30T05:31:06;83.03;;;42.60;;
26690;SDS011;14307;51.718;8.938;2022-09-30T05:33:33;88.20;;;42.70;;
26690;SDS011;14307;51.718;8.938;2022-09-30T05:36:02;91.53;;;44.53;;
26690;SDS011;14307;51.718;8.938;2022-09-30T05:38:31;90.93;;;46.65;;
26690;SDS011;14307;51.718;8.938;2022-09-30T05:40:57;99.90;;;45.28;;
26690;SDS011;14307;51.718;8.938;2022-09-30T05:43:31;97.63;;;46.05;;
26690;SDS011;14307;51.718;8.938;2022-09-30T05:45:58;95.28;;;44.53;;
26690;SDS011;14307;51.718;8.938;2022-09-30T05:48:25;88.47;;;42.83;;
26690;SDS011;14307;51.718;8.938;2022-09-30T05:50:55;93.95;;;41.15;;
26690;SDS011;14307;51.718;8.938;2022-09-30T05:53:23;80.72;;;40.50;;
26690;SDS011;14307;51.718;8.938;2022-09-30T05:55:51;80.53;;;41.38;;
26690;SDS011;14307;51.718;8.938;2022-09-30T05:58:18;93.57;;;41.65;;
26690;SDS011;14307;51.718;8.938;2022-09-30T06:00:46;82.50;;;40.90;;
26690;SDS011;14307;51.718;8.938;2022-09-30T06:03:13;93.57;;;45.15;;
26690;SDS011;14307;51.718;8.938;2022-09-30T06:05:41;89.65;;;43.13;;
26690;SDS011;14307;51.718;8.938;2022-09-30T06:08:08;95.90;;;44.10;;
26690;SDS011;14307;51.718;8.938;2022-09-30T06:10:35;90.30;;;45.40;;
26690;SDS011;14307;51.718;8.938;2022-09-30T06:13:05;110.68;;;51.63;;
26690;SDS011;14307;51.718;8.938;2022-09-30T06:15:32;120.70;;;52.70;;
26690;SDS011;14307;51.718;8.938;2022-09-30T06:17:59;103.38;;;49.28;;
26690;SDS011;14307;51.718;8.938;2022-09-30T06:20:26;109.13;;;47.95;;
26690;SDS011;14307;51.718;8.938;2022-09-30T06:22:52;107.07;;;47.30;;
26690;SDS011;14307;51.718;8.938;2022-09-30T06:25:19;101.20;;;47.78;;
26690;SDS011;14307;51.718;8.938;2022-09-30T06:27:47;97.03;;;44.60;;
26690;SDS011;14307;51.718;8.938;2022-09-30T06:30:15;81.90;;;42.30;;
26690;SDS011;14307;51.718;8.938;2022-09-30T06:32:42;91.57;;;45.50;;
26690;SDS011;14307;51.718;8.938;2022-09-30T06:35:09;94.38;;;46.55;;
26690;SDS011;14307;51.718;8.938;2022-09-30T06:37:36;93.57;;;46.85;;
26690;SDS011;14307;51.718;8.938;2022-09-30T06:40:04;88.80;;;47.85;;
26690;SDS011;14307;51.718;8.938;2022-09-30T06:42:34;96.63;;;48.60;;
26690;SDS011;14307;51.718;8.938;2022-09-30T06:45:01;102.80;;;49.63;;
26690;SDS011;14307;51.718;8.938;2022-09-30T06:47:27;108.70;;;50.83;;
26690;SDS011;14307;51.718;8.938;2022-09-30T06:49:54;104.20;;;52.47;;
26690;SDS011;14307;51.718;8.938;2022-09-30T06:52:24;99.82;;;51.88;;
26690;SDS011;14307;51.718;8.938;2022-09-30T06:54:51;105.68;;;52.17;;
26690;SDS011;14307;51.718;8.938;2022-09-30T06:57:22;93.78;;;49.10;;
26690;SDS011;14307;51.718;8.938;2022-09-30T06:59:50;100.05;;;50.30;;
26690;SDS011;14307;51.718;8.938;2022-09-30T07:02:17;96.82;;;49.47;;
26690;SDS011;14307;51.718;8.938;2022-09-30T07:04:44;128.13;;;61.63;;
26690;SDS011;14307;51.718;8.938;2022-09-30T07:07:11;105.65;;;56.60;;
26690;SDS011;14307;51.718;8.938;2022-09-30T07:09:38;120.70;;;57.42;;
26690;SDS011;14307;51.718;8.938;2022-09-30T07:12:04;112.90;;;58.17;;
26690;SDS011;14307;51.718;8.938;2022-09-30T07:14:32;111.70;;;56.80;;
26690;SDS011;14307;51.718;8.938;2022-09-30T07:17:01;112.13;;;59.10;;
26690;SDS011;14307;51.718;8.938;2022-09-30T07:19:29;102.18;;;56.20;;
26690;SDS011;14307;51.718;8.938;2022-09-30T07:21:56;115.22;;;57.03;;
26690;SDS011;14307;51.718;8.938;2022-09-30T07:24:43;114.38;;;57.90;;
26690;SDS011;14307;51.718;8.938;2022-09-30T07:27:10;108.13;;;55.33;;
26690;SDS011;14307;51.718;8.938;2022-09-30T07:29:39;111.28;;;57.10;;
26690;SDS011;14307;51.718;8.938;2022-09-30T07:32:26;113.47;;;56.08;;
26690;SDS011;14307;51.718;8.938;2022-09-30T07:34:53;108.00;;;52.40;;
26690;SDS011;14307;51.718;8.938;2022-09-30T07:37:20;109.72;;;55.72;;
26690;SDS011;14307;51.718;8.938;2022-09-30T07:39:47;106.22;;;54.72;;
26690;SDS011;14307;51.718;8.938;2022-09-30T07:42:15;87.35;;;50.90;;
26690;SDS011;14307;51.718;8.938;2022-09-30T07:44:48;77.55;;;47.45;;
26690;SDS011;14307;51.718;8.938;2022-09-30T07:47:17;72.70;;;42.95;;
26690;SDS011;14307;51.718;8.938;2022-09-30T07:49:45;52.90;;;35.97;;
26690;SDS011;14307;51.718;8.938;2022-09-30T07:52:12;43.20;;;33.75;;
26690;SDS011;14307;51.718;8.938;2022-09-30T07:54:39;36.22;;;29.00;;
26690;SDS011;14307;51.718;8.938;2022-09-30T07:57:13;31.97;;;28.53;;
26690;SDS011;14307;51.718;8.938;2022-09-30T07:59:40;29.98;;;27.08;;
26690;SDS011;14307;51.718;8.938;2022-09-30T08:02:10;34.78;;;31.58;;
26690;SDS011;14307;51.718;8.938;2022-09-30T08:04:39;31.80;;;28.98;;
26690;SDS011;14307;51.718;8.938;2022-09-30T08:07:10;37.20;;;33.78;;
26690;SDS011;14307;51.718;8.938;2022-09-30T08:09:39;36.20;;;33.15;;
26690;SDS011;14307;51.718;8.938;2022-09-30T08:12:05;37.72;;;34.70;;
26690;SDS011;14307;51.718;8.938;2022-09-30T08:14:33;38.70;;;35.70;;
26690;SDS011;14307;51.718;8.938;2022-09-30T08:16:59;34.95;;;32.50;;
26690;SDS011;14307;51.718;8.938;2022-09-30T08:19:27;35.38;;;32.88;;
26690;SDS011;14307;51.718;8.938;2022-09-30T08:21:55;34.47;;;31.95;;
26690;SDS011;14307;51.718;8.938;2022-09-30T08:24:23;33.38;;;30.98;;
26690;SDS011;14307;51.718;8.938;2022-09-30T08:26:52;31.38;;;29.25;;
26690;SDS011;14307;51.718;8.938;2022-09-30T08:29:19;33.47;;;30.83;;
26690;SDS011;14307;51.718;8.938;2022-09-30T08:32:06;32.33;;;29.60;;
26690;SDS011;14307;51.718;8.938;2022-09-30T08:34:33;30.55;;;28.25;;
26690;SDS011;14307;51.718;8.938;2022-09-30T08:37:00;32.22;;;29.83;;
26690;SDS011;14307;51.718;8.938;2022-09-30T08:39:33;31.38;;;28.85;;
26690;SDS011;14307;51.718;8.938;2022-09-30T08:42:04;33.20;;;30.58;;
26690;SDS011;14307;51.718;8.938;2022-09-30T08:45:09;31.30;;;29.00;;
26690;SDS011;14307;51.718;8.938;2022-09-30T08:51:12;29.98;;;27.52;;
26690;SDS011;14307;51.718;8.938;2022-09-30T08:53:56;30.10;;;27.58;;
26690;SDS011;14307;51.718;8.938;2022-09-30T08:56:26;32.25;;;29.95;;
26690;SDS011;14307;51.718;8.938;2022-09-30T08:58:59;31.08;;;28.98;;
26690;SDS011;14307;51.718;8.938;2022-09-30T09:04:47;29.48;;;27.30;;
26690;SDS011;14307;51.718;8.938;2022-09-30T09:10:23;27.92;;;26.00;;
26690;SDS011;14307;51.718;8.938;2022-09-30T09:21:25;30.08;;;28.00;;
26690;SDS011;14307;51.718;8.938;2022-09-30T09:23:54;31.88;;;29.48;;
26690;SDS011;14307;51.718;8.938;2022-09-30T09:26:25;31.52;;;29.23;;
26690;SDS011;14307;51.718;8.938;2022-09-30T09:29:02;30.85;;;28.92;;
26690;SDS011;14307;51.718;8.938;2022-09-30T09:31:48;29.48;;;27.55;;
26690;SDS011;14307;51.718;8.938;2022-09-30T09:34:14;29.13;;;27.27;;
26690;SDS011;14307;51.718;8.938;2022-09-30T09:44:53;30.75;;;28.52;;
26690;SDS011;14307;51.718;8.938;2022-09-30T09:47:34;29.45;;;27.65;;
26690;SDS011;14307;51.718;8.938;2022-09-30T09:50:01;29.10;;;27.13;;
26690;SDS011;14307;51.718;8.938;2022-09-30T09:54:59;30.25;;;28.15;;
26690;SDS011;14307;51.718;8.938;2022-09-30T09:57:26;29.92;;;27.98;;
26690;SDS011;14307;51.718;8.938;2022-09-30T10:00:02;29.38;;;27.42;;
26690;SDS011;14307;51.718;8.938;2022-09-30T10:03:00;29.70;;;27.52;;
26690;SDS011;14307;51.718;8.938;2022-09-30T10:05:46;31.27;;;28.90;;
26690;SDS011;14307;51.718;8.938;2022-09-30T10:08:35;30.95;;;28.92;;
26690;SDS011;14307;51.718;8.938;2022-09-30T10:11:05;31.60;;;29.27;;
26690;SDS011;14307;51.718;8.938;2022-09-30T10:13:43;31.50;;;29.13;;
26690;SDS011;14307;51.718;8.938;2022-09-30T10:16:27;31.75;;;29.40;;
26690;SDS011;14307;51.718;8.938;2022-09-30T10:19:03;32.15;;;29.85;;
26690;SDS011;14307;51.718;8.938;2022-09-30T10:21:43;31.77;;;29.33;;
26690;SDS011;14307;51.718;8.938;2022-09-30T10:24:30;30.58;;;28.45;;
26690;SDS011;14307;51.718;8.938;2022-09-30T10:26:56;31.58;;;29.35;;
26690;SDS011;14307;51.718;8.938;2022-09-30T10:29:30;32.22;;;29.60;;
26690;SDS011;14307;51.718;8.938;2022-09-30T10:32:00;30.77;;;28.45;;
26690;SDS011;14307;51.718;8.938;2022-09-30T10:37:01;32.13;;;29.63;;
26690;SDS011;14307;51.718;8.938;2022-09-30T10:39:35;31.05;;;28.80;;
26690;SDS011;14307;51.718;8.938;2022-09-30T10:42:09;32.80;;;30.35;;
26690;SDS011;14307;51.718;8.938;2022-09-30T10:44:55;32.78;;;30.10;;
26690;SDS011;14307;51.718;8.938;2022-09-30T10:47:27;34.95;;;32.05;;
26690;SDS011;14307;51.718;8.938;2022-09-30T10:50:06;33.63;;;31.02;;
26690;SDS011;14307;51.718;8.938;2022-09-30T10:52:55;34.58;;;31.88;;
26690;SDS011;14307;51.718;8.938;2022-09-30T10:55:32;33.45;;;30.70;;
26690;SDS011;14307;51.718;8.938;2022-09-30T10:58:19;37.42;;;34.28;;
26690;SDS011;14307;51.718;8.938;2022-09-30T11:00:46;35.05;;;32.53;;
26690;SDS011;14307;51.718;8.938;2022-09-30T11:03:17;33.00;;;30.42;;
26690;SDS011;14307;51.718;8.938;2022-09-30T11:05:49;31.45;;;28.95;;
26690;SDS011;14307;51.718;8.938;2022-09-30T11:08:28;32.97;;;30.38;;
26690;SDS011;14307;51.718;8.938;2022-09-30T11:13:43;30.38;;;28.15;;
26690;SDS011;14307;51.718;8.938;2022-09-30T11:19:19;29.80;;;27.33;;
26690;SDS011;14307;51.718;8.938;2022-09-30T11:43:42;29.55;;;26.98;;
26690;SDS011;14307;51.718;8.938;2022-09-30T11:49:21;28.05;;;25.75;;
26690;SDS011;14307;51.718;8.938;2022-09-30T11:57:22;28.48;;;26.45;;
26690;SDS011;14307;51.718;8.938;2022-09-30T12:00:00;29.90;;;27.48;;
26690;SDS011;14307;51.718;8.938;2022-09-30T12:02:43;30.30;;;28.08;;
26690;SDS011;14307;51.718;8.938;2022-09-30T12:05:25;29.65;;;27.45;;
26690;SDS011;14307;51.718;8.938;2022-09-30T12:10:51;30.17;;;27.95;;
26690;SDS011;14307;51.718;8.938;2022-09-30T12:13:22;28.00;;;25.67;;
26690;SDS011;14307;51.718;8.938;2022-09-30T12:16:02;30.17;;;27.58;;
26690;SDS011;14307;51.718;8.938;2022-09-30T12:18:35;29.42;;;27.23;;
26690;SDS011;14307;51.718;8.938;2022-09-30T12:23:48;28.58;;;26.48;;
26690;SDS011;14307;51.718;8.938;2022-09-30T12:26:23;28.13;;;26.13;;
26690;SDS011;14307;51.718;8.938;2022-09-30T12:28:55;29.00;;;27.02;;
26690;SDS011;14307;51.718;8.938;2022-09-30T12:42:25;27.55;;;25.85;;
26690;SDS011;14307;51.718;8.938;2022-09-30T12:48:05;27.38;;;25.50;;
26690;SDS011;14307;51.718;8.938;2022-09-30T12:53:25;26.77;;;24.85;;
26690;SDS011;14307;51.718;8.938;2022-09-30T12:55:52;26.35;;;24.83;;
26690;SDS011;14307;51.718;8.938;2022-09-30T12:58:22;25.77;;;24.15;;
26690;SDS011;14307;51.718;8.938;2022-09-30T13:01:00;27.25;;;25.35;;
26690;SDS011;14307;51.718;8.938;2022-09-30T13:03:48;26.33;;;24.55;;
26690;SDS011;14307;51.718;8.938;2022-09-30T13:06:22;27.42;;;25.40;;
26690;SDS011;14307;51.718;8.938;2022-09-30T13:11:32;25.83;;;24.25;;
26690;SDS011;14307;51.718;8.938;2022-09-30T13:32:39;27.00;;;25.10;;
26690;SDS011;14307;51.718;8.938;2022-09-30T13:40:40;27.52;;;25.77;;
26690;SDS011;14307;51.718;8.938;2022-09-30T13:46:31;26.88;;;25.05;;
26690;SDS011;14307;51.718;8.938;2022-09-30T13:49:22;25.33;;;23.77;;
26690;SDS011;14307;51.718;8.938;2022-09-30T13:52:44;25.70;;;23.80;;
26690;SDS011;14307;51.718;8.938;2022-09-30T13:55:17;26.85;;;24.95;;
26690;SDS011;14307;51.718;8.938;2022-09-30T14:09:29;25.88;;;24.08;;
26690;SDS011;14307;51.718;8.938;2022-09-30T14:12:19;25.50;;;23.90;;
26690;SDS011;14307;51.718;8.938;2022-09-30T14:23:18;27.33;;;25.33;;
26690;SDS011;14307;51.718;8.938;2022-09-30T14:28:41;24.67;;;23.08;;
26690;SDS011;14307;51.718;8.938;2022-09-30T14:31:22;25.00;;;23.50;;
26690;SDS011;14307;51.718;8.938;2022-09-30T14:33:50;22.65;;;21.42;;
26690;SDS011;14307;51.718;8.938;2022-09-30T14:36:19;23.80;;;22.35;;
26690;SDS011;14307;51.718;8.938;2022-09-30T14:38:48;24.48;;;22.98;;
26690;SDS011;14307;51.718;8.938;2022-09-30T14:43:50;25.35;;;23.85;;
26690;SDS011;14307;51.718;8.938;2022-09-30T14:49:04;24.50;;;22.95;;
26690;SDS011;14307;51.718;8.938;2022-09-30T14:51:38;24.13;;;22.60;;
26690;SDS011;14307;51.718;8.938;2022-09-30T14:54:18;24.00;;;22.58;;
26690;SDS011;14307;51.718;8.938;2022-09-30T14:56:47;23.85;;;22.15;;
26690;SDS011;14307;51.718;8.938;2022-09-30T15:01:45;25.10;;;23.30;;
26690;SDS011;14307;51.718;8.938;2022-09-30T15:04:16;25.27;;;23.77;;
26690;SDS011;14307;51.718;8.938;2022-09-30T15:06:50;23.92;;;22.42;;
26690;SDS011;14307;51.718;8.938;2022-09-30T15:11:50;26.15;;;24.45;;
26690;SDS011;14307;51.718;8.938;2022-09-30T15:16:52;25.17;;;23.55;;
26690;SDS011;14307;51.718;8.938;2022-09-30T15:19:22;25.67;;;24.17;;
26690;SDS011;14307;51.718;8.938;2022-09-30T15:22:03;25.73;;;24.08;;
26690;SDS011;14307;51.718;8.938;2022-09-30T15:24:32;24.92;;;23.42;;
26690;SDS011;14307;51.718;8.938;2022-09-30T15:27:01;24.75;;;23.15;;
26690;SDS011;14307;51.718;8.938;2022-09-30T15:29:29;24.70;;;23.30;;
26690;SDS011;14307;51.718;8.938;2022-09-30T15:32:00;24.73;;;23.13;;
26690;SDS011;14307;51.718;8.938;2022-09-30T15:34:39;25.05;;;23.25;;
26690;SDS011;14307;51.718;8.938;2022-09-30T15:37:12;25.05;;;23.45;;
26690;SDS011;14307;51.718;8.938;2022-09-30T15:39:46;24.90;;;23.30;;
26690;SDS011;14307;51.718;8.938;2022-09-30T15:42:39;24.73;;;23.23;;
26690;SDS011;14307;51.718;8.938;2022-09-30T15:47:54;25.50;;;23.88;;
26690;SDS011;14307;51.718;8.938;2022-09-30T15:50:33;24.23;;;22.77;;
26690;SDS011;14307;51.718;8.938;2022-09-30T15:53:19;24.88;;;23.27;;
26690;SDS011;14307;51.718;8.938;2022-09-30T15:55:57;25.40;;;23.80;;
26690;SDS011;14307;51.718;8.938;2022-09-30T16:03:53;26.63;;;25.13;;
26690;SDS011;14307;51.718;8.938;2022-09-30T16:06:27;26.92;;;25.33;;
26690;SDS011;14307;51.718;8.938;2022-09-30T16:11:35;28.58;;;26.88;;
26690;SDS011;14307;51.718;8.938;2022-09-30T16:14:10;28.65;;;27.00;;
26690;SDS011;14307;51.718;8.938;2022-09-30T16:16:51;28.02;;;26.33;;
26690;SDS011;14307;51.718;8.938;2022-09-30T16:19:20;27.90;;;26.10;;
26690;SDS011;14307;51.718;8.938;2022-09-30T16:21:49;28.98;;;26.98;;
26690;SDS011;14307;51.718;8.938;2022-09-30T16:26:54;28.38;;;26.27;;
26690;SDS011;14307;51.718;8.938;2022-09-30T16:29:23;26.92;;;25.10;;
26690;SDS011;14307;51.718;8.938;2022-09-30T16:31:52;25.52;;;23.77;;
26690;SDS011;14307;51.718;8.938;2022-09-30T16:34:24;33.97;;;30.98;;
26690;SDS011;14307;51.718;8.938;2022-09-30T16:36:53;27.77;;;25.85;;
26690;SDS011;14307;51.718;8.938;2022-09-30T16:39:28;28.98;;;26.85;;
26690;SDS011;14307;51.718;8.938;2022-09-30T16:41:55;29.50;;;27.50;;
26690;SDS011;14307;51.718;8.938;2022-09-30T16:44:22;30.35;;;28.30;;
26690;SDS011;14307;51.718;8.938;2022-09-30T16:46:49;28.67;;;26.70;;
26690;SDS011;14307;51.718;8.938;2022-09-30T16:49:18;29.05;;;27.05;;
26690;SDS011;14307;51.718;8.938;2022-09-30T16:51:45;27.25;;;25.45;;
26690;SDS011;14307;51.718;8.938;2022-09-30T16:54:12;32.28;;;29.77;;
26690;SDS011;14307;51.718;8.938;2022-09-30T16:56:39;28.08;;;25.50;;
26690;SDS011;14307;51.718;8.938;2022-09-30T16:59:08;23.30;;;21.50;;
26690;SDS011;14307;51.718;8.938;2022-09-30T17:01:38;22.75;;;21.05;;
26690;SDS011;14307;51.718;8.938;2022-09-30T17:04:06;23.02;;;21.42;;
26690;SDS011;14307;51.718;8.938;2022-09-30T17:06:34;33.92;;;30.75;;
26690;SDS011;14307;51.718;8.938;2022-09-30T17:09:02;74.47;;;58.88;;
26690;SDS011;14307;51.718;8.938;2022-09-30T17:11:30;45.58;;;40.65;;
26690;SDS011;14307;51.718;8.938;2022-09-30T17:13:59;40.83;;;36.70;;
26690;SDS011;14307;51.718;8.938;2022-09-30T17:16:26;62.70;;;52.58;;
26690;SDS011;14307;51.718;8.938;2022-09-30T17:18:53;28.67;;;26.38;;
26690;SDS011;14307;51.718;8.938;2022-09-30T17:21:20;34.20;;;31.05;;
26690;SDS011;14307;51.718;8.938;2022-09-30T17:23:49;34.30;;;30.70;;
26690;SDS011;14307;51.718;8.938;2022-09-30T17:26:16;29.35;;;26.75;;
26690;SDS011;14307;51.718;8.938;2022-09-30T17:28:43;31.25;;;28.52;;
26690;SDS011;14307;51.718;8.938;2022-09-30T17:34:22;25.42;;;23.35;;
26690;SDS011;14307;51.718;8.938;2022-09-30T17:36:52;25.63;;;23.67;;
26690;SDS011;14307;51.718;8.938;2022-09-30T17:39:19;27.13;;;24.58;;
26690;SDS011;14307;51.718;8.938;2022-09-30T17:41:46;28.60;;;25.08;;
26690;SDS011;14307;51.718;8.938;2022-09-30T17:44:31;27.38;;;24.83;;
26690;SDS011;14307;51.718;8.938;2022-09-30T17:46:58;26.98;;;24.60;;
26690;SDS011;14307;51.718;8.938;2022-09-30T17:49:33;29.08;;;26.30;;
26690;SDS011;14307;51.718;8.938;2022-09-30T17:52:00;39.25;;;32.05;;
26690;SDS011;14307;51.718;8.938;2022-09-30T17:54:28;25.13;;;22.88;;
26690;SDS011;14307;51.718;8.938;2022-09-30T17:56:56;26.02;;;23.63;;
26690;SDS011;14307;51.718;8.938;2022-09-30T17:59:23;24.90;;;22.48;;
26690;SDS011;14307;51.718;8.938;2022-09-30T18:01:52;23.80;;;21.80;;
26690;SDS011;14307;51.718;8.938;2022-09-30T18:04:21;25.05;;;22.52;;
26690;SDS011;14307;51.718;8.938;2022-09-30T18:06:52;27.45;;;24.10;;
26690;SDS011;14307;51.718;8.938;2022-09-30T18:09:19;36.15;;;31.15;;
26690;SDS011;14307;51.718;8.938;2022-09-30T18:11:46;27.58;;;24.30;;
26690;SDS011;14307;51.718;8.938;2022-09-30T18:14:12;27.50;;;24.75;;
26690;SDS011;14307;51.718;8.938;2022-09-30T18:16:39;30.27;;;27.25;;
26690;SDS011;14307;51.718;8.938;2022-09-30T18:19:06;27.95;;;25.15;;
26690;SDS011;14307;51.718;8.938;2022-09-30T18:21:34;25.63;;;23.27;;
26690;SDS011;14307;51.718;8.938;2022-09-30T18:24:02;26.55;;;23.77;;
26690;SDS011;14307;51.718;8.938;2022-09-30T18:26:31;22.95;;;20.90;;
26690;SDS011;14307;51.718;8.938;2022-09-30T18:29:01;21.65;;;19.67;;
26690;SDS011;14307;51.718;8.938;2022-09-30T18:31:28;18.60;;;17.20;;
26690;SDS011;14307;51.718;8.938;2022-09-30T18:34:00;18.30;;;16.55;;